Time;durP1;ratioP1;P1;durP2;ratioP2;P2;SDS_P1;SDS_P2;PMS_P1;PMS_P2;Temp;Humidity;BMP_temperature;BMP_pressure;BME280_temperature;BME280_humidity;BME280_pressure;Samples;Min_cycle;Max_cycle;Signal;HPM_P1;HPM_P2
2023/07/24 00:01:53;;;;;;;1999.90;999.90;;;;;;;20.42;100.00;94673.28;5086678;28;20165;-65
2023/07/24 00:04:18;;;;;;;1999.90;999.90;;;;;;;20.38;100.00;94666.41;5087183;28;20165;-66
2023/07/24 00:06:44;;;;;;;1999.90;999.90;;;;;;;20.28;100.00;94665.78;5090694;28;20199;-65
2023/07/24 00:09:09;;;;;;;1999.90;999.90;;;;;;;20.17;100.00;94654.53;5090108;28;20172;-65
2023/07/24 00:11:34;;;;;;;1999.90;999.90;;;;;;;20.17;100.00;94648.25;5090227;28;20176;-65
2023/07/24 00:14:00;;;;;;;1999.90;999.90;;;;;;;20.17;100.00;94646.22;5090138;28;20172;-65
2023/07/24 00:16:25;;;;;;;1999.90;999.90;;;;;;;20.19;100.00;94640.97;5089903;28;20226;-66
2023/07/24 00:18:50;;;;;;;1999.90;999.90;;;;;;;20.10;100.00;94641.06;5090186;28;20180;-65
2023/07/24 00:21:16;;;;;;;1999.90;999.90;;;;;;;20.11;100.00;94628.75;5090335;28;20168;-66
2023/07/24 00:23:41;;;;;;;1999.90;999.90;;;;;;;20.14;100.00;94630.53;5090409;28;20164;-65
2023/07/24 00:26:06;;;;;;;1999.90;999.90;;;;;;;20.10;100.00;94626.44;5089876;28;20190;-65
2023/07/24 00:28:32;;;;;;;1999.90;999.90;;;;;;;19.99;100.00;94623.50;5090317;28;20165;-65
2023/07/24 00:30:58;;;;;;;1999.90;999.90;;;;;;;19.87;100.00;94610.72;5090350;28;20269;-66
2023/07/24 00:33:23;;;;;;;1999.90;999.90;;;;;;;19.87;100.00;94600.41;5089818;28;20202;-65
2023/07/24 00:35:48;;;;;;;1999.90;999.90;;;;;;;19.82;100.00;94601.09;5089616;28;20194;-65
2023/07/24 00:38:14;;;;;;;1999.90;999.90;;;;;;;19.69;100.00;94589.56;5089585;28;20219;-67
2023/07/24 00:40:39;;;;;;;1999.90;999.90;;;;;;;19.72;100.00;94583.06;5089526;28;20165;-66
2023/07/24 00:43:04;;;;;;;1999.90;999.90;;;;;;;19.71;100.00;94592.63;5090093;28;20188;-65
2023/07/24 00:45:30;;;;;;;1999.90;999.90;;;;;;;19.67;100.00;94577.44;5089765;28;20169;-64
2023/07/24 00:47:55;;;;;;;1999.90;999.90;;;;;;;19.60;100.00;94570.28;5089532;28;20169;-65
2023/07/24 00:50:21;;;;;;;1999.90;999.90;;;;;;;19.62;100.00;94567.78;5089802;28;20165;-65
2023/07/24 00:52:46;;;;;;;1999.90;999.90;;;;;;;19.50;100.00;94566.09;5089326;28;20248;-65
2023/07/24 00:55:13;;;;;;;1999.90;999.90;;;;;;;19.48;100.00;94563.81;5089804;28;20161;-65
2023/07/24 00:57:40;;;;;;;1999.90;999.90;;;;;;;19.48;100.00;94563.81;5088824;28;20231;-65
2023/07/24 01:00:06;;;;;;;1999.90;999.90;;;;;;;19.43;100.00;94556.19;5089069;28;20189;-66
2023/07/24 01:02:32;;;;;;;1999.90;999.90;;;;;;;19.51;100.00;94562.09;5089117;28;20176;-66
2023/07/24 01:04:57;;;;;;;1999.90;999.90;;;;;;;19.53;100.00;94559.59;5089186;28;20168;-66
2023/07/24 01:07:23;;;;;;;1999.90;999.90;;;;;;;19.52;100.00;94568.41;5089109;28;20168;-67
2023/07/24 01:09:50;;;;;;;1999.90;999.90;;;;;;;19.51;100.00;94567.63;5089225;28;20202;-66
2023/07/24 01:12:22;;;;;;;1999.90;999.90;;;;;;;19.49;100.00;94562.56;5089494;28;20187;-67
2023/07/24 01:14:58;;;;;;;1999.90;999.90;;;;;;;19.61;100.00;94560.72;5088890;28;20197;-66
2023/07/24 01:17:26;;;;;;;1999.90;999.90;;;;;;;19.58;100.00;94560.91;5088808;28;20200;-67
2023/07/24 01:19:57;;;;;;;1999.90;999.90;;;;;;;19.55;100.00;94550.81;5089229;28;20195;-66
2023/07/24 01:22:29;;;;;;;1999.90;999.90;;;;;;;19.54;100.00;94558.34;5088517;28;20172;-66
2023/07/24 01:25:22;;;;;;;1999.90;999.90;;;;;;;19.54;100.00;94555.59;5088609;28;20172;-66
2023/07/24 01:27:48;;;;;;;1999.90;999.90;;;;;;;19.52;100.00;94563.59;5088908;28;20207;-66
2023/07/24 01:30:18;;;;;;;1999.90;999.90;;;;;;;19.52;100.00;94551.78;5088563;28;20169;-67
2023/07/24 01:32:44;;;;;;;1999.90;999.90;;;;;;;19.51;100.00;94556.53;5088820;28;20164;-66
2023/07/24 01:35:09;;;;;;;1999.90;999.90;;;;;;;19.55;100.00;94554.34;5088733;28;20236;-66
2023/07/24 01:37:37;;;;;;;1999.90;999.90;;;;;;;19.64;100.00;94547.91;5088448;28;20207;-66
2023/07/24 01:40:03;;;;;;;1999.90;999.90;;;;;;;19.55;100.00;94539.75;5088449;28;20169;-66
2023/07/24 01:42:33;;;;;;;1999.90;999.90;;;;;;;19.35;100.00;94529.38;5088786;28;20236;-66
2023/07/24 01:44:58;;;;;;;1999.90;999.90;;;;;;;19.26;100.00;94518.38;5088374;28;20176;-66
2023/07/24 01:47:23;;;;;;;1999.90;999.90;;;;;;;19.20;100.00;94509.97;5088179;28;20168;-67
2023/07/24 01:49:49;;;;;;;1999.90;999.90;;;;;;;19.17;100.00;94510.19;5088224;28;20172;-66
2023/07/24 01:52:14;;;;;;;1999.90;999.90;;;;;;;19.06;100.00;94504.47;5088202;28;20165;-66
2023/07/24 01:54:39;;;;;;;1999.90;999.90;;;;;;;19.12;100.00;94508.06;5088074;28;20191;-67
2023/07/24 01:57:05;;;;;;;1999.90;999.90;;;;;;;19.19;100.00;94499.38;5084490;28;20243;-66
2023/07/24 01:59:30;;;;;;;1999.90;999.90;;;;;;;19.18;100.00;94514.47;5085097;28;20197;-66
2023/07/24 02:01:56;;;;;;;1999.90;999.90;;;;;;;19.24;100.00;94520.88;5084681;28;20223;-67
2023/07/24 02:04:22;;;;;;;1999.90;999.90;;;;;;;19.30;100.00;94516.19;5084598;28;20185;-66
2023/07/24 02:06:48;;;;;;;1999.90;999.90;;;;;;;19.35;100.00;94526.59;5084512;28;20176;-65
2023/07/24 02:09:13;;;;;;;1999.90;999.90;;;;;;;19.36;100.00;94511.50;5084770;28;20169;-67
2023/07/24 02:11:39;;;;;;;1999.90;999.90;;;;;;;19.38;100.00;94522.88;5084917;28;20207;-67
2023/07/24 02:14:04;;;;;;;1999.90;999.90;;;;;;;19.38;100.00;94525.66;5084409;28;20165;-65
2023/07/24 02:16:29;;;;;;;1999.90;999.90;;;;;;;19.37;100.00;94524.09;5084230;28;20197;-65
2023/07/24 02:18:55;;;;;;;1999.90;999.90;;;;;;;19.40;100.00;94534.22;5084901;28;20165;-66
2023/07/24 02:21:20;;;;;;;1999.90;999.90;;;;;;;19.39;100.00;94547.31;5084331;28;20223;-65
2023/07/24 02:23:45;;;;;;;1999.90;999.90;;;;;;;19.36;100.00;94539.19;5084408;28;20173;-66
2023/07/24 02:26:11;;;;;;;1999.90;999.90;;;;;;;19.34;100.00;94544.47;5084201;28;20165;-66
2023/07/24 02:28:36;;;;;;;1999.90;999.90;;;;;;;19.33;100.00;94531.84;5083799;28;20169;-65
2023/07/24 02:31:01;;;;;;;1999.90;999.90;;;;;;;19.30;100.00;94530.03;5084672;28;20166;-66
2023/07/24 02:33:27;;;;;;;1999.90;999.90;;;;;;;19.34;100.00;94530.63;5084412;28;20165;-66
2023/07/24 02:35:52;;;;;;;1999.90;999.90;;;;;;;19.41;100.00;94541.28;5084079;28;20192;-66
2023/07/24 02:38:18;;;;;;;1999.90;999.90;;;;;;;19.45;100.00;94553.69;5084197;28;20207;-66
2023/07/24 02:40:44;;;;;;;1999.90;999.90;;;;;;;19.53;100.00;94623.31;5084080;28;20173;-65
2023/07/24 02:43:09;;;;;;;1999.90;999.90;;;;;;;19.67;100.00;94641.94;5083684;28;20165;-65
2023/07/24 02:45:35;;;;;;;1999.90;999.90;;;;;;;19.75;100.00;94607.03;5084541;28;20236;-65
2023/07/24 02:48:01;;;;;;;1999.90;999.90;;;;;;;19.94;100.00;94613.88;5084683;28;20165;-65
2023/07/24 02:50:27;;;;;;;1999.90;999.90;;;;;;;20.02;100.00;94617.75;5083937;28;20221;-65
2023/07/24 02:52:52;;;;;;;1999.90;999.90;;;;;;;20.16;100.00;94611.44;5083939;28;20195;-66
2023/07/24 02:55:18;;;;;;;1999.90;999.90;;;;;;;20.29;100.00;94631.25;5084421;28;20165;-66
2023/07/24 02:57:43;;;;;;;1999.90;999.90;;;;;;;20.28;100.00;94629.72;5083596;28;20256;-66
2023/07/24 03:00:09;;;;;;;1999.90;999.90;;;;;;;20.27;100.00;94624.66;5083825;28;20193;-66
2023/07/24 03:02:34;;;;;;;1999.90;999.90;;;;;;;20.18;100.00;94620.00;5083813;28;20193;-67
2023/07/24 03:05:00;;;;;;;1999.90;999.90;;;;;;;20.23;100.00;94649.06;5083837;28;20169;-66
2023/07/24 03:07:25;;;;;;;1999.90;999.90;;;;;;;20.29;100.00;94720.00;5083738;28;20173;-66
2023/07/24 03:09:51;;;;;;;1999.90;999.90;;;;;;;20.35;100.00;94790.22;5083727;28;20209;-65
2023/07/24 03:12:16;;;;;;;1999.90;999.90;;;;;;;20.44;100.00;94865.03;5083949;28;20169;-66
2023/07/24 03:14:41;;;;;;;1999.90;999.90;;;;;;;20.25;100.00;94799.13;5083704;28;20172;-61
2023/07/24 03:17:07;;;;;;;1999.90;999.90;;;;;;;19.73;100.00;94700.22;5083598;28;20192;-61
2023/07/24 03:19:32;;;;;;;1999.90;999.90;;;;;;;19.48;100.00;94538.88;5084136;28;20165;-61
2023/07/24 03:21:57;;;;;;;1999.90;999.90;;;;;;;19.28;100.00;94327.63;5084159;28;20165;-60
2023/07/24 03:24:23;;;;;;;1999.90;999.90;;;;;;;19.12;100.00;94132.38;5084070;28;20169;-60
2023/07/24 03:26:48;;;;;;;1999.90;999.90;;;;;;;19.03;100.00;93935.28;5084117;28;20165;-60
2023/07/24 03:29:13;;;;;;;1999.90;999.90;;;;;;;18.99;100.00;93743.81;5083525;28;20166;-60
2023/07/24 03:31:39;;;;;;;1999.90;999.90;;;;;;;18.88;100.00;93453.28;5084329;28;20169;-60
2023/07/24 03:34:04;;;;;;;1999.90;999.90;;;;;;;18.82;100.00;93240.31;5083462;28;20166;-59
2023/07/24 03:36:29;;;;;;;1999.90;999.90;;;;;;;18.78;100.00;93107.06;5083936;28;20212;-60
2023/07/24 03:38:54;;;;;;;1999.90;999.90;;;;;;;18.77;100.00;93032.88;5083346;28;20185;-60
2023/07/24 03:41:20;;;;;;;1999.90;999.90;;;;;;;18.72;100.00;92994.97;5087070;28;20203;-60
2023/07/24 03:43:45;;;;;;;1999.90;999.90;;;;;;;18.68;100.00;92908.75;5087767;28;20165;-60
2023/07/24 03:46:10;;;;;;;1999.90;999.90;;;;;;;18.51;100.00;92803.09;5087289;28;20188;-60
2023/07/24 03:48:36;;;;;;;1999.90;999.90;;;;;;;18.40;100.00;92837.13;5087346;28;20236;-60
2023/07/24 03:51:02;;;;;;;1999.90;999.90;;;;;;;18.41;100.00;93620.13;5087654;28;20169;-59
2023/07/24 03:53:27;;;;;;;1999.90;999.90;;;;;;;18.46;100.00;93624.91;5087583;28;20207;-60
2023/07/24 03:55:53;;;;;;;1999.90;999.90;;;;;;;18.45;100.00;93609.59;5087027;28;20184;-59
2023/07/24 03:58:19;;;;;;;1999.90;999.90;;;;;;;18.50;100.00;93622.69;5086668;28;20289;-59
2023/07/24 04:00:44;;;;;;;1999.90;999.90;;;;;;;18.49;100.00;93632.22;5086958;28;20208;-60
2023/07/24 04:03:10;;;;;;;1999.90;999.90;;;;;;;18.47;100.00;93623.69;5086896;28;20161;-60
2023/07/24 04:05:36;;;;;;;1999.90;999.90;;;;;;;18.44;100.00;93630.97;5086813;28;20235;-60
2023/07/24 04:08:02;;;;;;;1999.90;999.90;;;;;;;18.41;100.00;93631.97;5086763;28;20236;-59
2023/07/24 04:10:28;;;;;;;1999.90;999.90;;;;;;;18.29;100.00;93652.47;5087234;28;20165;-60
2023/07/24 04:12:53;;;;;;;1999.90;999.90;;;;;;;18.23;100.00;93637.09;5086780;28;20232;-60
2023/07/24 04:15:19;;;;;;;1999.90;999.90;;;;;;;18.21;100.00;93639.63;5087358;28;20161;-60
2023/07/24 04:17:44;;;;;;;1999.90;999.90;;;;;;;18.09;100.00;93649.09;5086942;28;20193;-60
2023/07/24 04:20:10;;;;;;;1999.90;999.90;;;;;;;18.09;100.00;93654.59;5086713;28;20161;-60
2023/07/24 04:22:35;;;;;;;1999.90;999.90;;;;;;;18.10;100.00;93636.81;5087044;28;20189;-60
2023/07/24 04:25:01;;;;;;;1999.90;999.90;;;;;;;18.09;100.00;93621.44;5086545;28;20162;-60
2023/07/24 04:27:26;;;;;;;1999.90;999.90;;;;;;;18.12;100.00;93592.84;5086800;28;20203;-60
2023/07/24 04:29:51;;;;;;;1999.90;999.90;;;;;;;18.04;100.00;93403.94;5086640;28;20165;-60
2023/07/24 04:32:17;;;;;;;1999.90;999.90;;;;;;;18.04;100.00;93420.50;5087087;28;20169;-62
2023/07/24 04:34:42;;;;;;;1999.90;999.90;;;;;;;18.03;100.00;93419.00;5086647;28;20195;-60
2023/07/24 04:37:07;;;;;;;1999.90;999.90;;;;;;;18.10;100.00;93426.81;5086633;28;20242;-60
2023/07/24 04:39:33;;;;;;;1999.90;999.90;;;;;;;18.18;100.00;93408.50;5086613;28;20207;-59
2023/07/24 04:41:59;;;;;;;1999.90;999.90;;;;;;;18.21;100.00;93401.97;5086045;28;20169;-60
2023/07/24 04:44:24;;;;;;;1999.90;999.90;;;;;;;18.29;100.00;93419.56;5085952;28;20165;-60
2023/07/24 04:46:50;;;;;;;1999.90;999.90;;;;;;;18.32;100.00;93405.47;5085998;28;20236;-59
2023/07/24 04:49:16;;;;;;;1999.90;999.90;;;;;;;18.28;100.00;93412.53;5086402;28;20165;-59
2023/07/24 04:51:41;;;;;;;1999.90;999.90;;;;;;;18.26;100.00;93404.72;5085522;28;20236;-60
2023/07/24 04:54:06;;;;;;;1999.90;999.90;;;;;;;18.32;100.00;93401.97;5086424;28;20165;-59
2023/07/24 04:56:31;;;;;;;1999.90;999.90;;;;;;;18.38;100.00;93400.75;5085498;28;20229;-60
2023/07/24 04:58:57;;;;;;;1999.90;999.90;;;;;;;18.47;100.00;93408.03;5085955;28;20235;-60
2023/07/24 05:01:22;;;;;;;1999.90;999.90;;;;;;;18.56;100.00;93405.00;5085897;28;20165;-60
2023/07/24 05:03:48;;;;;;;1999.90;999.90;;;;;;;18.72;100.00;93396.72;5086239;28;20169;-60
2023/07/24 05:06:13;;;;;;;1999.90;999.90;;;;;;;18.85;100.00;93410.78;5085680;28;20192;-60
2023/07/24 05:08:38;;;;;;;1999.90;999.90;;;;;;;19.10;100.00;93433.91;5085579;28;20177;-60
2023/07/24 05:11:04;;;;;;;1999.90;999.90;;;;;;;19.32;100.00;93467.09;5085605;28;20236;-60
2023/07/24 05:13:29;;;;;;;1999.90;999.90;;;;;;;19.27;100.00;93484.50;5085795;28;20193;-59
2023/07/24 05:15:54;;;;;;;1999.90;999.90;;;;;;;19.23;100.00;93506.09;5085954;28;20165;-60
2023/07/24 05:18:20;;;;;;;1999.90;999.90;;;;;;;19.33;100.00;93530.28;5086081;28;20276;-60
2023/07/24 05:20:52;;;;;;;1999.90;999.90;;;;;;;19.27;100.00;93562.00;5085288;28;20219;-59
2023/07/24 05:23:17;;;;;;;1999.90;999.90;;;;;;;19.25;100.00;93553.44;5085973;28;20161;-62
2023/07/24 05:25:43;;;;;;;1999.90;999.90;;;;;;;19.17;100.00;93547.59;5085295;28;20241;-60
2023/07/24 05:28:09;;;;;;;1999.90;999.90;;;;;;;19.24;100.00;93554.66;5085141;28;20169;-60
2023/07/24 05:30:34;;;;;;;1999.90;999.90;;;;;;;19.42;100.00;93557.69;5085092;28;20253;-60
2023/07/24 05:33:00;;;;;;;1999.90;999.90;;;;;;;19.59;100.00;93568.75;5085566;28;20174;-60
2023/07/24 05:35:25;;;;;;;1999.90;999.90;;;;;;;20.19;100.00;93573.44;5085499;28;20173;-60
2023/07/24 05:37:50;;;;;;;1999.90;999.90;;;;;;;20.98;100.00;93608.66;5085410;28;20197;-60
2023/07/24 05:40:16;;;;;;;1999.90;999.90;;;;;;;21.38;100.00;93671.78;5085783;28;20169;-60
2023/07/24 05:42:43;;;;;;;1999.90;999.90;;;;;;;22.01;100.00;93712.03;5085131;28;20169;-61
2023/07/24 05:45:10;;;;;;;1999.90;999.90;;;;;;;22.81;100.00;93678.13;5085382;28;20165;-60
2023/07/24 05:47:36;;;;;;;1999.90;999.90;;;;;;;23.17;100.00;93671.09;5084618;28;20192;-60
2023/07/24 05:50:01;;;;;;;1999.90;999.90;;;;;;;23.42;100.00;93715.09;5084894;28;20180;-61
2023/07/24 05:52:26;;;;;;;1999.90;999.90;;;;;;;23.00;100.00;93737.38;5084669;28;20176;-61
2023/07/24 05:54:52;;;;;;;1999.90;999.90;;;;;;;22.39;100.00;93735.97;5085433;28;20169;-61
2023/07/24 05:57:17;;;;;;;1999.90;999.90;;;;;;;22.61;100.00;93714.78;5084134;28;20233;-62
2023/07/24 05:59:42;;;;;;;1999.90;999.90;;;;;;;23.18;100.00;93715.13;5084598;28;20212;-60
2023/07/24 06:02:09;;;;;;;1999.90;999.90;;;;;;;23.67;100.00;93769.47;5084113;28;20173;-60
2023/07/24 06:04:34;;;;;;;1999.90;999.90;;;;;;;24.43;100.00;93813.53;5084796;28;20173;-60
2023/07/24 06:07:00;;;;;;;1999.90;999.90;;;;;;;25.09;100.00;93954.97;5084435;28;20173;-60
2023/07/24 06:09:25;;;;;;;1999.90;999.90;;;;;;;25.61;100.00;94089.41;5084740;28;20180;-60
2023/07/24 06:11:50;;;;;;;1999.90;999.90;;;;;;;26.13;100.00;94248.38;5084392;28;20169;-61
2023/07/24 06:14:16;;;;;;;1999.90;999.90;;;;;;;26.52;100.00;94450.97;5084307;28;20176;-61
2023/07/24 06:16:41;;;;;;;1999.90;999.90;;;;;;;26.48;100.00;94502.97;5084230;28;20176;-61
2023/07/24 06:19:06;;;;;;;1999.90;999.90;;;;;;;25.54;100.00;94517.97;5084098;28;20176;-62
2023/07/24 06:21:32;;;;;;;1999.90;999.90;;;;;;;24.76;100.00;94514.16;5084079;28;20166;-61
2023/07/24 06:23:57;;;;;;;1999.90;999.90;;;;;;;24.58;100.00;94520.34;5084130;28;20181;-59
2023/07/24 06:26:22;;;;;;;1999.90;999.90;;;;;;;25.63;100.00;94528.81;5084153;28;20173;-62
2023/07/24 06:28:48;;;;;;;1999.90;999.90;;;;;;;25.98;100.00;94547.59;5084538;28;20290;-59
2023/07/24 06:31:13;;;;;;;1999.90;999.90;;;;;;;26.88;100.00;94584.00;5084435;28;20196;-63
2023/07/24 06:33:38;;;;;;;1999.90;999.90;;;;;;;27.69;100.00;94599.44;5084467;28;20196;-61
2023/07/24 06:36:08;;;;;;;1999.90;999.90;;;;;;;28.40;100.00;94588.28;5084257;28;20176;-61
2023/07/24 06:38:33;;;;;;;1999.90;999.90;;;;;;;28.69;100.00;94578.81;5084180;28;20197;-60
2023/07/24 06:40:59;;;;;;;1999.90;999.90;;;;;;;29.34;100.00;94575.88;5083906;28;20170;-61
2023/07/24 06:43:24;;;;;;;1999.90;999.90;;;;;;;30.17;100.00;94598.00;5083789;28;20169;-61
2023/07/24 06:45:49;;;;;;;1999.90;999.90;;;;;;;30.38;100.00;94603.59;5083843;28;20185;-61
2023/07/24 06:48:15;;;;;;;1999.90;999.90;;;;;;;30.72;100.00;94607.06;5084309;28;20165;-61
2023/07/24 06:50:40;;;;;;;1999.90;999.90;;;;;;;30.71;100.00;94616.84;5084278;28;20174;-61
2023/07/24 06:53:05;;;;;;;1999.90;999.90;;;;;;;30.56;100.00;94625.91;5084254;28;20180;-61
2023/07/24 06:55:31;;;;;;;1999.90;999.90;;;;;;;31.05;100.00;94623.06;5084007;28;20177;-61
2023/07/24 06:57:56;;;;;;;1999.90;999.90;;;;;;;31.53;100.00;94621.44;5083695;28;20230;-61
2023/07/24 07:00:21;;;;;;;1999.90;999.90;;;;;;;30.61;100.00;94618.63;5083656;28;20234;-62
2023/07/24 07:02:46;;;;;;;1999.90;999.90;;;;;;;30.86;100.00;94619.75;5083919;28;20169;-62
2023/07/24 07:05:12;;;;;;;1999.90;999.90;;;;;;;30.92;100.00;94626.00;5083756;28;20169;-61
2023/07/24 07:07:39;;;;;;;1999.90;999.90;;;;;;;31.53;96.25;94633.47;5084158;28;20173;-61
2023/07/24 07:10:05;;;;;;;1999.90;999.90;;;;;;;31.99;93.48;94640.03;5083534;28;20196;-63
2023/07/24 07:12:30;;;;;;;1999.90;999.90;;;;;;;33.02;89.03;94651.97;5083363;28;20169;-62
2023/07/24 07:14:56;;;;;;;1999.90;999.90;;;;;;;33.99;79.37;94655.03;5087446;28;20176;-62
2023/07/24 07:17:21;;;;;;;1999.90;999.90;;;;;;;33.47;74.82;94660.34;5088178;28;20192;-63
2023/07/24 07:19:46;;;;;;;1999.90;999.90;;;;;;;33.28;75.18;94676.25;5087691;28;20238;-62
2023/07/24 07:22:12;;;;;;;1999.90;999.90;;;;;;;32.94;75.67;94695.75;5088207;28;20165;-62
2023/07/24 07:24:37;;;;;;;1999.90;999.90;;;;;;;31.99;81.83;94702.19;5088111;28;20229;-61
2023/07/24 07:27:02;;;;;;;1999.90;999.90;;;;;;;31.37;89.79;94705.31;5087745;28;20176;-62
2023/07/24 07:29:28;;;;;;;1999.90;999.90;;;;;;;30.90;95.58;94713.25;5087460;28;20161;-62
2023/07/24 07:31:53;;;;;;;1999.90;999.90;;;;;;;30.22;100.00;94717.50;5087096;28;20173;-62
2023/07/24 07:34:18;;;;;;;1999.90;999.90;;;;;;;29.76;100.00;94760.56;5087433;28;20168;-62
2023/07/24 07:36:44;;;;;;;1999.90;999.90;;;;;;;29.02;100.00;94800.38;5087173;28;20169;-62
2023/07/24 07:39:09;;;;;;;1999.90;999.90;;;;;;;27.86;100.00;94816.91;5087602;28;20166;-62
2023/07/24 07:41:34;;;;;;;1999.90;999.90;;;;;;;27.32;100.00;94807.09;5087829;28;20184;-62
2023/07/24 07:44:00;;;;;;;1999.90;999.90;;;;;;;26.37;100.00;94795.16;5087225;28;20184;-61
2023/07/24 07:46:25;;;;;;;1999.90;999.90;;;;;;;25.72;100.00;94769.13;5087407;28;20176;-62
2023/07/24 07:48:51;;;;;;;1999.90;999.90;;;;;;;25.39;100.00;94774.88;5087830;28;20169;-62
2023/07/24 07:51:16;;;;;;;1999.90;999.90;;;;;;;24.77;100.00;94750.38;5087327;28;20199;-62
2023/07/24 07:53:41;;;;;;;1999.90;999.90;;;;;;;24.49;100.00;94721.69;5087239;28;20165;-62
2023/07/24 07:56:07;;;;;;;1999.90;999.90;;;;;;;24.67;100.00;94723.97;5087185;28;20245;-62
2023/07/24 07:58:33;;;;;;;1999.90;999.90;;;;;;;24.44;100.00;94716.88;5090937;28;20224;-62
2023/07/24 08:01:02;;;;;;;1999.90;999.90;;;;;;;24.22;100.00;94700.16;5090357;28;20169;-62
2023/07/24 08:03:28;;;;;;;1999.90;999.90;;;;;;;24.17;100.00;94678.56;5090142;28;20161;-62
2023/07/24 08:05:57;;;;;;;1999.90;999.90;;;;;;;24.11;100.00;94666.69;5090743;28;20190;-61
2023/07/24 08:08:22;;;;;;;1999.90;999.90;;;;;;;24.09;100.00;94652.47;5090696;28;20171;-62
2023/07/24 08:10:48;;;;;;;1999.90;999.90;;;;;;;24.07;100.00;94644.59;5090214;28;20168;-62
2023/07/24 08:13:13;;;;;;;1999.90;999.90;;;;;;;24.13;100.00;94627.84;5090081;28;20180;-62
2023/07/24 08:15:38;;;;;;;1999.90;999.90;;;;;;;24.34;100.00;94629.06;5090416;28;20165;-62
2023/07/24 08:18:04;;;;;;;1999.90;999.90;;;;;;;24.27;100.00;94635.19;5090366;28;20196;-62
2023/07/24 08:20:30;;;;;;;1999.90;999.90;;;;;;;24.39;100.00;94636.66;5090310;28;20206;-62
2023/07/24 08:22:55;;;;;;;1999.90;999.90;;;;;;;24.36;100.00;94644.03;5089975;28;20168;-62
2023/07/24 08:25:21;;;;;;;1999.90;999.90;;;;;;;24.47;100.00;94640.47;5089621;28;20214;-62
2023/07/24 08:27:46;;;;;;;1999.90;999.90;;;;;;;24.48;100.00;94644.78;5090324;28;20200;-62
2023/07/24 08:30:11;;;;;;;1999.90;999.90;;;;;;;24.57;100.00;94641.69;5089737;28;20172;-62
2023/07/24 08:32:37;;;;;;;1999.90;999.90;;;;;;;24.34;100.00;94635.44;5089671;28;20172;-62
2023/07/24 08:35:02;;;;;;;1999.90;999.90;;;;;;;24.29;100.00;94621.50;5089600;28;20176;-62
2023/07/24 08:37:28;;;;;;;1999.90;999.90;;;;;;;24.27;100.00;94610.06;5089248;28;20192;-61
2023/07/24 08:39:53;;;;;;;1999.90;999.90;;;;;;;24.00;100.00;94599.72;5089676;28;20188;-62
2023/07/24 08:42:20;;;;;;;1999.90;999.90;;;;;;;23.82;100.00;94583.47;5089823;28;20167;-62
2023/07/24 08:44:45;;;;;;;1999.90;999.90;;;;;;;23.92;100.00;94604.25;5089360;28;20176;-61
2023/07/24 08:47:13;;;;;;;1999.90;999.90;;;;;;;23.96;100.00;94602.00;5089490;28;20168;-62
2023/07/24 08:49:42;;;;;;;1999.90;999.90;;;;;;;24.16;100.00;94612.88;5089046;28;20165;-61
2023/07/24 08:52:08;;;;;;;1999.90;999.90;;;;;;;24.04;100.00;94617.69;5089408;28;20164;-62
2023/07/24 08:54:36;;;;;;;1999.90;999.90;;;;;;;24.07;100.00;94615.94;5089214;28;20160;-61
2023/07/24 08:57:02;;;;;;;1999.90;999.90;;;;;;;23.67;100.00;94619.25;5089550;28;20225;-61
2023/07/24 08:59:29;;;;;;;1999.90;999.90;;;;;;;23.47;100.00;94602.75;5089075;28;20189;-62
2023/07/24 09:01:55;;;;;;;1999.90;999.90;;;;;;;23.25;100.00;94594.34;5089822;28;20165;-62
2023/07/24 09:04:20;;;;;;;1999.90;999.90;;;;;;;23.30;100.00;94604.78;5089544;28;20213;-62
2023/07/24 09:06:46;;;;;;;1999.90;999.90;;;;;;;23.47;100.00;94616.69;5089617;28;20226;-62
2023/07/24 09:09:14;;;;;;;1999.90;999.90;;;;;;;23.43;100.00;94619.72;5089541;28;20165;-62
2023/07/24 09:11:50;;;;;;;1999.90;999.90;;;;;;;23.34;100.00;94622.00;5089526;28;20176;-61
2023/07/24 09:14:26;;;;;;;1999.90;999.90;;;;;;;23.52;100.00;94616.69;5088989;28;20169;-61
2023/07/24 09:17:11;;;;;;;1999.90;999.90;;;;;;;23.54;100.00;94618.97;5089255;28;20213;-62
2023/07/24 09:19:37;;;;;;;1999.90;999.90;;;;;;;23.44;100.00;94623.25;5089240;28;20161;-61
2023/07/24 09:22:14;;;;;;;1999.90;999.90;;;;;;;23.23;100.00;94622.72;5088945;28;20168;-62
2023/07/24 09:24:50;;;;;;;1999.90;999.90;;;;;;;23.16;100.00;94623.19;5089035;28;20188;-61
2023/07/24 09:27:15;;;;;;;1999.90;999.90;;;;;;;23.40;100.00;94614.38;5088525;28;20168;-61
2023/07/24 09:29:41;;;;;;;1999.90;999.90;;;;;;;23.62;100.00;94608.81;5088559;28;20188;-61
2023/07/24 09:32:07;;;;;;;1999.90;999.90;;;;;;;24.22;100.00;94602.47;5088525;28;20192;-61
2023/07/24 09:34:33;;;;;;;1999.90;999.90;;;;;;;24.88;100.00;94614.16;5088577;28;20169;-62
2023/07/24 09:36:58;;;;;;;1999.90;999.90;;;;;;;25.35;100.00;94626.16;5087053;28;20192;-62
2023/07/24 09:39:25;;;;;;;1999.90;999.90;;;;;;;25.68;100.00;94634.31;5088839;28;20257;-63
2023/07/24 09:41:50;;;;;;;1999.90;999.90;;;;;;;25.91;100.00;94630.06;5088760;28;20196;-62
2023/07/24 09:44:16;;;;;;;1999.90;999.90;;;;;;;25.96;100.00;94622.94;5088446;28;20164;-61
2023/07/24 09:46:43;;;;;;;1999.90;999.90;;;;;;;25.88;100.00;94611.50;5088414;28;20192;-62
2023/07/24 09:49:09;;;;;;;1999.90;999.90;;;;;;;26.36;100.00;94605.25;5088758;28;20174;-62
2023/07/24 09:51:35;;;;;;;1999.90;999.90;;;;;;;27.29;100.00;94615.34;5088565;28;20184;-62
2023/07/24 09:54:09;;;;;;;1999.90;999.90;;;;;;;27.79;100.00;94609.72;5088081;28;20160;-62
2023/07/24 09:56:36;;;;;;;1999.90;999.90;;;;;;;27.93;100.00;94608.50;5088065;28;20222;-62
2023/07/24 09:59:02;;;;;;;1999.90;999.90;;;;;;;28.51;100.00;94605.72;5088551;28;20234;-62
2023/07/24 10:01:29;;;;;;;1999.90;999.90;;;;;;;28.67;100.00;94607.47;5088656;28;20168;-62
2023/07/24 10:03:55;;;;;;;1999.90;999.90;;;;;;;29.21;100.00;94616.06;5088224;28;20176;-62
2023/07/24 10:06:21;;;;;;;1999.90;999.90;;;;;;;29.95;100.00;94620.28;5088258;28;20204;-62
2023/07/24 10:08:47;;;;;;;1999.90;999.90;;;;;;;29.98;100.00;94616.38;5087835;28;20195;-62
2023/07/24 10:11:13;;;;;;;1999.90;999.90;;;;;;;29.81;100.00;94601.94;5087984;28;20176;-62
2023/07/24 10:13:40;;;;;;;1999.90;999.90;;;;;;;29.75;100.00;94601.34;5087995;28;20213;-62
2023/07/24 10:16:06;;;;;;;1999.90;999.90;;;;;;;30.16;100.00;94598.53;5087714;28;20168;-63
2023/07/24 10:18:33;;;;;;;1999.90;999.90;;;;;;;29.73;100.00;94592.66;5087628;28;20219;-62
2023/07/24 10:21:04;;;;;;;1999.90;999.90;;;;;;;30.62;100.00;94591.91;5087494;28;20169;-63
2023/07/24 10:23:30;;;;;;;1999.90;999.90;;;;;;;30.51;100.00;94595.03;5087837;28;20171;-62
2023/07/24 10:25:55;;;;;;;1999.90;999.90;;;;;;;29.90;100.00;94590.22;5088046;28;20169;-63
2023/07/24 10:28:30;;;;;;;1999.90;999.90;;;;;;;29.89;100.00;94588.69;5087978;28;20173;-62
2023/07/24 10:30:59;;;;;;;1999.90;999.90;;;;;;;29.85;100.00;94593.91;5087903;28;20183;-62
2023/07/24 10:33:25;;;;;;;1999.90;999.90;;;;;;;30.00;92.52;94594.03;5087538;28;20165;-63
2023/07/24 10:36:02;;;;;;;1999.90;999.90;;;;;;;30.29;92.21;94598.44;5087083;28;20253;-62
2023/07/24 10:38:36;;;;;;;1999.90;999.90;;;;;;;30.51;91.64;94603.50;5087830;28;20199;-62
2023/07/24 10:41:03;;;;;;;1999.90;999.90;;;;;;;30.64;92.07;94609.81;5087217;28;20168;-62
2023/07/24 10:43:39;;;;;;;1999.90;999.90;;;;;;;30.25;94.37;94598.03;5087279;28;20235;-62